Terminal Aerodrome Forecast
Issued by NWS Green Bay, WI

Home | Current Version | Previous Version | Graphics & Text | Print | Product List | Glossary On
Versions: 1 2 3 4 5 6 7 8 9 10 11 12 13 14 15 16 17
000
FTUS43 KGRB 212339
TAFGRB
TAF
KGRB 212339Z 2200/2224 20005KT P6SM VCSH SCT050 OVC100
     FM220500 14006KT 5SM -SHRA BR VCTS BKN030CB
     FM221100 10006KT 3SM BR OVC008
     FM221500 04006KT P6SM BKN012
     FM221900 08005KT P6SM SCT025 BKN050
     FM222300 11005KT P6SM VCSH BKN050=

USA.gov is the U.S. government's official web portal to all federal, state and local government web resources and services.